Time;durP1;ratioP1;P1;durP2;ratioP2;P2;SDS_P1;SDS_P2;PMS_P1;PMS_P2;Temp;Humidity;BMP_temperature;BMP_pressure;BME280_temperature;BME280_humidity;BME280_pressure;Samples;Min_cycle;Max_cycle;Signal;HPM_P1;HPM_P2
2021/06/04 00:01:22;;;;;;;24.80;20.60;;;;;;;21.20;77.97;101647.34;4997873;28;20050;-64
2021/06/04 00:03:49;;;;;;;23.98;20.83;;;;;;;21.24;77.79;101646.28;5001099;28;20072;-64
2021/06/04 00:06:15;;;;;;;25.83;21.88;;;;;;;21.20;78.13;101641.22;5006283;28;20416;-65
2021/06/04 00:08:42;;;;;;;24.42;21.70;;;;;;;21.11;78.31;101640.72;5013625;28;20436;-64
2021/06/04 00:11:11;;;;;;;26.93;22.70;;;;;;;21.09;78.01;101639.97;5027269;22;20530;-65
2021/06/04 00:13:40;;;;;;;25.30;21.73;;;;;;;21.09;78.61;101645.25;5007142;28;20099;-67
2021/06/04 00:16:12;;;;;;;25.13;21.80;;;;;;;21.08;78.75;101645.31;5027137;28;20056;-68
2021/06/04 00:18:41;;;;;;;28.23;23.73;;;;;;;21.08;78.59;101642.66;5018776;28;20068;-66
2021/06/04 00:21:10;;;;;;;28.20;24.38;;;;;;;21.07;78.69;101639.19;5022980;28;20045;-67
2021/06/04 00:23:38;;;;;;;30.95;25.52;;;;;;;21.09;78.46;101639.97;5017279;28;20508;-67
2021/06/04 00:26:05;;;;;;;30.83;24.42;;;;;;;21.08;78.67;101640.00;5007236;28;20076;-66
2021/06/04 00:28:31;;;;;;;28.58;25.55;;;;;;;21.04;78.78;101636.66;5017340;28;20438;-65
2021/06/04 00:30:57;;;;;;;36.33;27.08;;;;;;;20.99;78.84;101643.13;5013049;28;20665;-66
2021/06/04 00:33:24;;;;;;;29.00;25.88;;;;;;;20.94;78.97;101643.34;5020136;28;20060;-66
2021/06/04 00:35:51;;;;;;;30.48;26.55;;;;;;;20.87;79.33;101639.28;5009758;28;20049;-66
2021/06/04 00:38:17;;;;;;;32.00;28.15;;;;;;;20.74;79.83;101634.59;5015027;28;20100;-66
2021/06/04 00:40:47;;;;;;;31.92;27.38;;;;;;;20.69;80.04;101631.28;5010293;28;20045;-66
2021/06/04 00:43:13;;;;;;;30.95;26.10;;;;;;;20.69;80.27;101636.56;5011770;28;20061;-66
2021/06/04 00:45:43;;;;;;;29.60;25.95;;;;;;;20.72;80.27;101632.91;5010548;28;20503;-67
2021/06/04 00:48:10;;;;;;;33.42;27.98;;;;;;;20.70;80.22;101627.72;5024024;28;20327;-67
2021/06/04 00:50:40;;;;;;;29.70;25.50;;;;;;;20.64;80.45;101628.88;5021368;28;20063;-66
2021/06/04 00:53:09;;;;;;;30.75;27.20;;;;;;;20.69;80.20;101631.28;5011463;28;20045;-67
2021/06/04 00:55:35;;;;;;;31.42;27.90;;;;;;;20.69;80.24;101630.41;5015434;28;20107;-67
2021/06/04 00:58:02;;;;;;;26.55;23.63;;;;;;;20.69;80.44;101635.69;5013124;28;20061;-67
2021/06/04 01:00:32;;;;;;;26.73;22.30;;;;;;;20.68;80.37;101640.13;5019077;28;20160;-66
2021/06/04 01:02:59;;;;;;;28.52;23.27;;;;;;;20.67;80.22;101639.25;5013599;28;20415;-66
2021/06/04 01:05:28;;;;;;;29.40;23.73;;;;;;;20.65;80.32;101637.63;5022998;28;20042;-65
2021/06/04 01:08:11;;;;;;;26.70;23.83;;;;;;;20.63;80.39;101640.38;5016840;28;20434;-68
2021/06/04 01:10:53;;;;;;;27.85;24.88;;;;;;;20.65;80.36;101641.16;5027399;28;20046;-66
2021/06/04 01:13:26;;;;;;;31.85;26.40;;;;;;;20.64;80.38;101638.56;5023984;28;20046;-66
2021/06/04 01:16:06;;;;;;;33.58;28.85;;;;;;;20.65;80.39;101641.16;5018035;28;20501;-65
2021/06/04 01:18:51;;;;;;;27.38;24.42;;;;;;;20.66;80.53;101631.41;5014828;28;20052;-67
2021/06/04 01:21:26;;;;;;;28.27;23.80;;;;;;;20.66;80.19;101639.34;5013080;28;20074;-68
2021/06/04 01:24:02;;;;;;;29.00;25.58;;;;;;;20.65;80.50;101637.63;5030902;28;20057;-66
2021/06/04 01:26:35;;;;;;;31.25;27.30;;;;;;;20.67;80.24;101638.44;5024012;28;20042;-66
2021/06/04 01:29:07;;;;;;;32.05;26.23;;;;;;;20.64;80.37;101638.56;5016335;28;20058;-66
2021/06/04 01:31:39;;;;;;;32.08;26.98;;;;;;;20.58;80.65;101634.41;5012765;28;20405;-67
2021/06/04 01:34:09;;;;;;;32.83;27.35;;;;;;;20.64;80.19;101643.84;5021543;28;20115;-66
2021/06/04 01:36:40;;;;;;;30.80;27.33;;;;;;;20.64;79.87;101644.72;5020688;28;20145;-66
2021/06/04 01:39:10;;;;;;;32.58;28.75;;;;;;;20.55;80.21;101646.94;5020389;28;20076;-66
2021/06/04 01:41:40;;;;;;;32.22;27.35;;;;;;;20.46;80.40;101648.22;5012740;28;20507;-64
2021/06/04 01:44:10;;;;;;;33.45;27.63;;;;;;;20.34;80.98;101641.72;5017060;28;20672;-66
2021/06/04 01:46:41;;;;;;;31.23;27.10;;;;;;;20.23;81.21;101647.50;5019394;28;20045;-66
2021/06/04 01:49:18;;;;;;;33.28;26.67;;;;;;;20.17;81.44;101651.28;5017636;28;20060;-67
2021/06/04 01:51:48;;;;;;;30.92;26.98;;;;;;;20.19;81.30;101652.06;5017225;28;20133;-67
2021/06/04 01:54:18;;;;;;;29.77;26.58;;;;;;;20.12;81.81;101647.97;5020947;28;20060;-66
2021/06/04 01:56:49;;;;;;;29.67;25.20;;;;;;;20.10;81.12;101646.31;5024472;28;20046;-66
2021/06/04 01:59:20;;;;;;;31.30;26.83;;;;;;;20.06;81.19;101642.97;5027265;28;20058;-67
2021/06/04 02:01:48;;;;;;;30.58;27.27;;;;;;;20.01;81.07;101643.16;5016080;28;20052;-66
2021/06/04 02:04:28;;;;;;;31.42;27.15;;;;;;;20.01;80.64;101648.44;5017733;28;20056;-67
2021/06/04 02:06:55;;;;;;;33.75;27.85;;;;;;;19.97;80.72;101643.38;5018394;28;20079;-66
2021/06/04 02:09:25;;;;;;;32.78;28.55;;;;;;;19.92;80.67;101640.06;5035249;28;20053;-66
2021/06/04 02:11:53;;;;;;;32.97;27.52;;;;;;;19.84;81.12;101643.88;5015783;28;20116;-67
2021/06/04 02:14:24;;;;;;;32.78;29.27;;;;;;;19.83;81.23;101642.16;5022702;28;20053;-66
2021/06/04 02:17:18;;;;;;;37.58;29.20;;;;;;;19.81;81.12;101644.03;5032637;28;20049;-66
2021/06/04 02:19:55;;;;;;;35.27;28.10;;;;;;;19.79;81.26;101642.38;5011626;28;20046;-66
2021/06/04 02:22:26;;;;;;;32.95;28.52;;;;;;;19.83;81.01;101642.16;5014466;28;20045;-66
2021/06/04 02:25:01;;;;;;;34.63;29.17;;;;;;;19.80;81.19;101637.03;5014295;28;20060;-64
2021/06/04 02:27:32;;;;;;;32.05;26.38;;;;;;;19.77;81.27;101641.56;5015672;28;20076;-66
2021/06/04 02:30:02;;;;;;;32.03;28.30;;;;;;;19.73;81.51;101643.50;5022222;28;20054;-66
2021/06/04 02:32:36;;;;;;;31.70;26.73;;;;;;;19.75;81.62;101639.00;5016029;28;20058;-67
2021/06/04 02:35:07;;;;;;;;;;;;;;;19.77;81.10;101642.44;5020134;28;20053;-66
2021/06/04 02:37:38;;;;;;;30.35;25.92;;;;;;;19.81;80.92;101643.16;5018272;28;19943;-66
2021/06/04 02:40:09;;;;;;;30.35;26.15;;;;;;;19.79;80.93;101645.00;5021687;28;20056;-66
2021/06/04 02:42:40;;;;;;;33.20;27.60;;;;;;;19.78;80.65;101646.81;5012454;28;20049;-65
2021/06/04 02:45:13;;;;;;;33.92;27.52;;;;;;;19.77;80.50;101647.72;5019148;28;20520;-67
2021/06/04 02:47:42;;;;;;;35.42;28.08;;;;;;;19.74;80.68;101647.84;5017937;28;20045;-65
2021/06/04 02:50:12;;;;;;;30.10;26.15;;;;;;;19.73;80.59;101646.13;5017730;28;20046;-68
2021/06/04 02:52:39;;;;;;;31.45;27.33;;;;;;;19.66;80.62;101652.59;5016399;28;20099;-66
2021/06/04 02:55:10;;;;;;;33.95;27.95;;;;;;;19.64;80.81;101651.81;5010591;28;20530;-66
2021/06/04 02:57:38;;;;;;;34.20;27.58;;;;;;;19.61;80.84;101659.88;5012130;28;20061;-67
2021/06/04 03:00:15;;;;;;;36.63;29.00;;;;;;;19.55;81.14;101655.72;5019377;28;20062;-66
2021/06/04 03:02:41;;;;;;;36.83;29.98;;;;;;;19.56;81.07;101663.56;5012620;28;20045;-66
2021/06/04 03:05:10;;;;;;;36.17;28.58;;;;;;;19.55;81.08;101664.47;5011125;28;20053;-66
2021/06/04 03:07:41;;;;;;;33.78;28.30;;;;;;;19.60;80.96;101671.34;5025229;28;20514;-66
2021/06/04 03:10:13;;;;;;;36.10;28.40;;;;;;;19.62;80.85;101669.47;5025689;28;20051;-67
2021/06/04 03:12:42;;;;;;;32.13;27.98;;;;;;;19.60;80.57;101672.19;5015602;28;20045;-66
2021/06/04 03:15:17;;;;;;;33.05;28.90;;;;;;;19.58;80.45;101676.69;5011957;28;20492;-67
2021/06/04 03:17:43;;;;;;;33.75;30.05;;;;;;;19.50;80.58;101671.75;5016024;28;20046;-67
2021/06/04 03:20:13;;;;;;;34.25;29.45;;;;;;;19.44;80.87;101671.97;5014051;28;20244;-67
2021/06/04 03:22:41;;;;;;;33.92;29.35;;;;;;;19.40;80.77;101678.31;5017521;28;20053;-66
2021/06/04 03:25:12;;;;;;;34.00;29.88;;;;;;;19.35;81.24;101678.50;5021439;28;20068;-67
2021/06/04 03:27:38;;;;;;;35.10;29.70;;;;;;;19.37;80.98;101678.44;5007026;28;20116;-66
2021/06/04 03:30:08;;;;;;;34.55;30.42;;;;;;;19.37;80.84;101676.66;5015471;28;20130;-67
2021/06/04 03:32:34;;;;;;;36.42;29.85;;;;;;;19.35;80.84;101685.56;5018090;28;20049;-67
2021/06/04 03:35:00;;;;;;;37.65;29.70;;;;;;;19.30;81.13;101684.91;5013164;28;20042;-66
2021/06/04 03:37:26;;;;;;;42.20;31.45;;;;;;;19.24;81.52;101684.22;5025129;28;20050;-66
2021/06/04 03:39:52;;;;;;;31.55;28.05;;;;;;;19.22;81.65;101675.50;5023679;28;20124;-66
2021/06/04 03:42:23;;;;;;;37.75;29.45;;;;;;;19.25;81.34;101683.28;5009440;28;20535;-67
2021/06/04 03:44:49;;;;;;;34.90;31.05;;;;;;;19.28;81.05;101690.22;5007404;28;20050;-67
2021/06/04 03:47:18;;;;;;;34.97;29.75;;;;;;;19.29;81.35;101689.28;5022040;28;20574;-66
2021/06/04 03:49:44;;;;;;;34.92;28.38;;;;;;;19.30;81.20;101685.75;5016258;28;20511;-66
2021/06/04 03:52:15;;;;;;;35.75;29.65;;;;;;;19.33;81.01;101687.38;5014010;28;20077;-67
2021/06/04 03:54:43;;;;;;;36.08;29.42;;;;;;;19.36;80.50;101695.19;5018109;28;20123;-67
2021/06/04 03:57:14;;;;;;;37.17;30.67;;;;;;;19.39;80.25;101692.44;5024104;28;20057;-67
2021/06/04 03:59:42;;;;;;;37.17;30.75;;;;;;;19.38;80.43;101681.00;5018130;28;20052;-66
2021/06/04 04:02:13;;;;;;;40.88;31.42;;;;;;;19.40;79.93;101680.97;5007723;28;20053;-67
2021/06/04 04:04:41;;;;;;;38.72;32.75;;;;;;;19.34;80.17;101684.72;5013780;28;20042;-66
2021/06/04 04:07:08;;;;;;;38.75;28.60;;;;;;;19.32;80.25;101689.19;5022192;28;20048;-66
2021/06/04 04:09:35;;;;;;;39.53;31.33;;;;;;;19.35;80.42;101696.09;5007756;28;20058;-67
2021/06/04 04:12:01;;;;;;;38.33;30.17;;;;;;;19.36;80.47;101700.47;5016304;28;20049;-66
2021/06/04 04:14:27;;;;;;;36.08;29.52;;;;;;;19.38;80.10;101698.63;5021888;28;20057;-67
2021/06/04 04:16:54;;;;;;;36.28;31.13;;;;;;;19.40;80.02;101696.78;5007384;28;20045;-67
2021/06/04 04:19:22;;;;;;;38.33;31.63;;;;;;;19.42;79.71;101694.91;5018468;28;20420;-66
2021/06/04 04:21:51;;;;;;;40.83;31.23;;;;;;;19.42;79.70;101700.19;5031064;28;20049;-66
2021/06/04 04:24:21;;;;;;;40.60;33.00;;;;;;;19.47;79.39;101697.38;5010396;28;20049;-69
2021/06/04 04:26:47;;;;;;;38.45;31.52;;;;;;;19.48;79.47;101696.44;5010513;28;20585;-68
2021/06/04 04:29:13;;;;;;;35.08;30.15;;;;;;;19.50;79.28;101705.16;5014093;28;20053;-66
2021/06/04 04:31:43;;;;;;;33.67;29.80;;;;;;;19.51;79.43;101705.13;5019107;28;20037;-67
2021/06/04 04:34:11;;;;;;;36.58;30.80;;;;;;;19.56;79.51;101705.78;5014980;28;20121;-67
2021/06/04 04:36:39;;;;;;;36.03;29.73;;;;;;;19.65;79.19;101709.81;5026422;28;20052;-66
2021/06/04 04:39:10;;;;;;;42.70;33.67;;;;;;;19.68;79.21;101707.03;5012185;28;20053;-67
2021/06/04 04:41:36;;;;;;;39.22;30.67;;;;;;;19.84;78.80;101711.69;5006255;28;20053;-67
2021/06/04 04:44:03;;;;;;;37.97;31.52;;;;;;;20.09;77.85;101713.28;5009376;28;20052;-67
2021/06/04 04:46:30;;;;;;;39.95;30.60;;;;;;;20.28;76.67;101711.53;5008185;28;20503;-65
2021/06/04 04:48:57;;;;;;;40.42;32.90;;;;;;;20.36;76.37;101708.56;5009797;28;20045;-67
2021/06/04 04:51:25;;;;;;;39.25;32.25;;;;;;;20.37;76.39;101710.28;5015072;28;20389;-66
2021/06/04 04:53:51;;;;;;;40.67;30.70;;;;;;;20.48;75.72;101710.66;5007162;28;20499;-67
2021/06/04 04:56:19;;;;;;;37.28;30.50;;;;;;;20.57;75.18;101709.34;5010649;28;20137;-66
2021/06/04 04:58:45;;;;;;;42.20;31.45;;;;;;;20.70;75.10;101716.72;5021269;28;20072;-66
2021/06/04 05:01:12;;;;;;;38.78;29.95;;;;;;;20.78;74.72;101710.19;5011923;28;20046;-67
2021/06/04 05:03:38;;;;;;;38.22;28.85;;;;;;;20.90;74.12;101719.31;5016269;28;20045;-66
2021/06/04 05:06:05;;;;;;;38.33;29.95;;;;;;;20.84;73.76;101718.75;5022143;28;20037;-66
2021/06/04 05:08:31;;;;;;;45.05;31.67;;;;;;;20.81;73.88;101717.97;5014366;28;20045;-66
2021/06/04 05:10:57;;;;;;;36.28;30.05;;;;;;;20.75;74.09;101725.34;5007964;28;20038;-67
2021/06/04 05:13:25;;;;;;;40.78;30.45;;;;;;;20.74;74.52;101727.13;5025158;28;20050;-66
2021/06/04 05:15:51;;;;;;;42.88;33.33;;;;;;;20.79;74.45;101730.41;5019956;28;20423;-67
2021/06/04 05:18:17;;;;;;;39.95;31.90;;;;;;;20.79;74.91;101724.25;5019065;28;20125;-68
2021/06/04 05:20:46;;;;;;;39.20;31.55;;;;;;;20.67;74.90;101723.88;5017550;28;20073;-66
2021/06/04 05:23:12;;;;;;;36.88;30.75;;;;;;;20.57;75.44;101721.72;5018295;28;20060;-66
2021/06/04 05:25:42;;;;;;;39.58;32.90;;;;;;;20.55;75.94;101728.88;5016821;28;20060;-66
2021/06/04 05:28:09;;;;;;;38.08;31.75;;;;;;;20.64;75.87;101728.44;5009032;28;20743;-68
2021/06/04 05:30:38;;;;;;;44.22;35.78;;;;;;;20.59;75.82;101733.94;5010850;28;20065;-66
2021/06/04 05:33:06;;;;;;;46.05;35.83;;;;;;;20.38;76.58;101730.50;5010170;28;20492;-66
2021/06/04 05:35:32;;;;;;;47.97;35.10;;;;;;;20.28;77.04;101732.66;5011683;28;20053;-66
2021/06/04 05:37:59;;;;;;;48.78;39.30;;;;;;;20.12;77.82;101729.84;5015294;28;20080;-66
2021/06/04 05:40:27;;;;;;;46.33;37.38;;;;;;;20.04;78.29;101731.97;5013079;28;20499;-66
2021/06/04 05:42:54;;;;;;;47.47;39.35;;;;;;;20.17;77.92;101734.94;5012019;28;20060;-65
2021/06/04 05:45:23;;;;;;;47.13;37.92;;;;;;;20.11;77.98;101738.72;5023135;28;20480;-66
2021/06/04 05:47:50;;;;;;;49.20;39.80;;;;;;;20.04;78.37;101740.75;5008265;28;20054;-66
2021/06/04 05:50:20;;;;;;;52.60;39.83;;;;;;;19.97;78.56;101743.72;5016268;28;20099;-65
2021/06/04 05:52:46;;;;;;;49.63;40.28;;;;;;;19.91;78.33;101741.34;5015447;28;20429;-66
2021/06/04 05:55:15;;;;;;;55.95;40.28;;;;;;;19.96;78.36;101742.00;5020881;28;20052;-65
2021/06/04 05:57:41;;;;;;;51.03;40.08;;;;;;;19.93;78.65;101739.47;5025023;28;20044;-65
2021/06/04 06:00:12;;;;;;;51.83;40.22;;;;;;;20.00;78.39;101743.59;5020298;28;20049;-66
2021/06/04 06:02:38;;;;;;;51.85;40.55;;;;;;;20.12;78.13;101743.06;5018068;28;20050;-66
2021/06/04 06:05:07;;;;;;;51.20;38.47;;;;;;;20.23;77.79;101737.31;5024897;28;20523;-64
2021/06/04 06:07:33;;;;;;;49.47;39.78;;;;;;;20.27;77.34;101735.41;5022997;28;20498;-66
2021/06/04 06:09:59;;;;;;;52.53;38.88;;;;;;;20.25;77.38;101737.25;5014045;28;20046;-66
2021/06/04 06:12:25;;;;;;;52.13;39.88;;;;;;;20.27;77.05;101743.31;5017581;28;20048;-66
2021/06/04 06:14:51;;;;;;;48.97;38.38;;;;;;;20.32;76.41;101739.56;5028554;28;20053;-66
2021/06/04 06:17:17;;;;;;;49.28;36.55;;;;;;;20.43;75.77;101746.97;5027227;28;20060;-65
2021/06/04 06:19:42;;;;;;;49.72;36.90;;;;;;;20.46;75.70;101744.22;5016234;28;20544;-66
2021/06/04 06:22:12;;;;;;;50.47;37.88;;;;;;;20.60;75.46;101754.16;5015506;28;20057;-66
2021/06/04 06:24:38;;;;;;;50.42;38.60;;;;;;;20.66;74.94;101753.88;5018384;28;20492;-66
2021/06/04 06:27:04;;;;;;;47.90;37.83;;;;;;;20.69;75.14;101757.31;5020648;28;20068;-66
2021/06/04 06:29:31;;;;;;;50.88;37.88;;;;;;;20.75;75.11;101763.22;5019885;28;20053;-64
2021/06/04 06:31:59;;;;;;;47.63;36.33;;;;;;;21.10;74.21;101766.00;5013322;28;20503;-66
2021/06/04 06:34:25;;;;;;;46.22;35.85;;;;;;;21.53;72.04;101771.03;5028249;28;20072;-67
2021/06/04 06:36:51;;;;;;;48.72;36.70;;;;;;;21.73;71.34;101772.69;5008888;28;20056;-66
2021/06/04 06:39:21;;;;;;;44.15;34.08;;;;;;;21.92;70.48;101770.91;5013696;28;20049;-66
2021/06/04 06:41:48;;;;;;;43.95;34.38;;;;;;;22.20;69.44;101773.03;5016584;28;20392;-66
2021/06/04 06:44:15;;;;;;;40.70;31.00;;;;;;;22.64;68.28;101774.28;5014673;28;20468;-67
2021/06/04 06:46:42;;;;;;;43.97;31.83;;;;;;;22.94;67.08;101761.13;5021019;28;20045;-66
2021/06/04 06:49:09;;;;;;;45.97;32.03;;;;;;;23.17;66.08;101766.09;5008493;28;20049;-67
2021/06/04 06:51:37;;;;;;;45.42;34.58;;;;;;;23.10;66.21;101766.44;5009452;28;20045;-67
2021/06/04 06:54:06;;;;;;;38.67;31.40;;;;;;;23.24;65.87;101771.00;5023633;28;20061;-67
2021/06/04 06:56:35;;;;;;;44.28;34.60;;;;;;;23.14;65.59;101772.44;5014930;28;20049;-66
2021/06/04 06:59:01;;;;;;;43.90;33.90;;;;;;;23.24;65.19;101775.47;5014663;28;20049;-66
2021/06/04 07:01:28;;;;;;;44.83;34.15;;;;;;;23.20;65.70;101772.13;5013935;28;20046;-66
2021/06/04 07:03:55;;;;;;;43.63;33.33;;;;;;;23.18;66.25;101775.75;5016648;28;20041;-66
2021/06/04 07:06:25;;;;;;;44.53;32.33;;;;;;;23.00;66.00;101775.00;5014971;28;20057;-66
2021/06/04 07:08:51;;;;;;;47.35;34.45;;;;;;;22.78;66.86;101781.50;5011781;28;20052;-65
2021/06/04 07:11:19;;;;;;;42.63;33.50;;;;;;;22.74;67.70;101779.94;5023004;28;20396;-67
2021/06/04 07:13:46;;;;;;;49.10;35.10;;;;;;;22.55;67.96;101780.94;5008731;28;20072;-66
2021/06/04 07:16:13;;;;;;;46.40;35.22;;;;;;;22.35;68.64;101785.47;5011190;28;20064;-66
2021/06/04 07:18:40;;;;;;;49.30;33.92;;;;;;;22.19;68.81;101782.75;5018586;28;20053;-66
2021/06/04 07:21:07;;;;;;;45.85;34.47;;;;;;;22.28;69.21;101781.44;5018320;28;20068;-66
2021/06/04 07:23:33;;;;;;;44.83;34.15;;;;;;;22.43;68.47;101789.53;5007517;28;20743;-66
2021/06/04 07:25:59;;;;;;;47.97;35.28;;;;;;;22.60;68.14;101784.22;5010890;28;20073;-66
2021/06/04 07:28:31;;;;;;;46.08;34.75;;;;;;;22.71;67.61;101782.78;5006394;28;20096;-66
2021/06/04 07:31:00;;;;;;;43.53;32.53;;;;;;;22.84;67.14;101778.50;5010280;28;20076;-65
2021/06/04 07:33:29;;;;;;;43.75;30.02;;;;;;;22.87;66.58;101783.66;5013748;28;20057;-67
2021/06/04 07:35:58;;;;;;;46.72;33.20;;;;;;;22.87;67.10;101781.00;5009064;28;20057;-65
2021/06/04 07:38:25;;;;;;;40.90;31.95;;;;;;;23.20;66.50;101780.09;5007996;28;20045;-64
2021/06/04 07:40:51;;;;;;;44.63;32.08;;;;;;;23.51;66.16;101780.97;5008475;28;21250;-66
2021/06/04 07:43:20;;;;;;;46.28;33.05;;;;;;;23.50;65.69;101771.34;5012568;28;20124;-64
2021/06/04 07:45:47;;;;;;;45.17;33.40;;;;;;;23.33;66.04;101758.16;5013202;28;20064;-65
2021/06/04 07:48:18;;;;;;;41.55;30.63;;;;;;;23.41;65.70;101764.75;5005031;28;20519;-63
2021/06/04 07:50:45;;;;;;;36.80;28.67;;;;;;;23.50;64.56;101767.81;5014054;28;20139;-65
2021/06/04 07:53:13;;;;;;;42.25;32.20;;;;;;;23.57;65.09;101771.81;5030521;28;20053;-66
2021/06/04 07:55:39;;;;;;;40.38;31.83;;;;;;;23.69;64.52;101778.22;5009070;28;20748;-65
2021/06/04 07:58:05;;;;;;;46.85;33.72;;;;;;;23.69;64.71;101773.75;5014213;28;20061;-65
2021/06/04 08:00:32;;;;;;;40.97;30.13;;;;;;;23.67;64.60;101769.50;5005462;28;20054;-62
2021/06/04 08:03:01;;;;;;;38.00;30.52;;;;;;;23.81;64.56;101774.81;5010170;28;20054;-64
2021/06/04 08:05:30;;;;;;;34.53;24.15;;;;;;;23.81;64.14;101766.84;5007684;28;20053;-65
2021/06/04 08:07:56;;;;;;;39.17;29.98;;;;;;;24.01;63.38;101767.50;5009711;28;20076;-65
2021/06/04 08:10:23;;;;;;;36.03;27.65;;;;;;;24.00;63.01;101773.78;5008309;28;20058;-65
2021/06/04 08:12:49;;;;;;;38.58;29.10;;;;;;;23.90;63.14;101763.69;5004134;28;20049;-64
2021/06/04 08:15:18;;;;;;;39.20;27.60;;;;;;;23.99;63.22;101761.44;5007147;28;20536;-65
2021/06/04 08:17:45;;;;;;;34.15;26.85;;;;;;;24.16;62.83;101774.56;5012982;28;20045;-64
2021/06/04 08:20:14;;;;;;;35.72;27.55;;;;;;;24.33;62.28;101768.25;5009305;28;20143;-64
2021/06/04 08:22:44;;;;;;;38.70;29.30;;;;;;;24.24;61.79;101759.94;5005000;28;20462;-64
2021/06/04 08:25:13;;;;;;;39.53;28.65;;;;;;;24.44;61.89;101759.59;5006307;28;20057;-64
2021/06/04 08:27:40;;;;;;;39.33;29.70;;;;;;;24.52;61.65;101761.78;5005943;28;20069;-64
2021/06/04 08:30:08;;;;;;;35.70;29.27;;;;;;;24.52;61.21;101761.78;5005198;28;22601;-64
2021/06/04 08:32:34;;;;;;;38.03;27.35;;;;;;;24.51;61.25;101758.25;5018144;28;20053;-67
2021/06/04 08:35:01;;;;;;;38.80;29.63;;;;;;;24.60;61.58;101758.66;5006957;28;20411;-64
2021/06/04 08:37:27;;;;;;;35.22;27.80;;;;;;;24.56;60.76;101760.63;5014307;28;20056;-65
2021/06/04 08:39:54;;;;;;;36.75;27.30;;;;;;;24.60;60.35;101763.97;5015840;28;20144;-64
2021/06/04 08:42:30;;;;;;;34.50;27.20;;;;;;;24.70;59.83;101762.47;5007491;28;20064;-65
2021/06/04 08:45:17;;;;;;;31.67;24.42;;;;;;;24.82;59.35;101764.34;5014262;28;20065;-65
2021/06/04 08:47:49;;;;;;;34.30;24.35;;;;;;;24.92;58.39;101759.28;5006043;28;20056;-68
2021/06/04 08:50:31;;;;;;;41.90;24.63;;;;;;;24.86;58.76;101759.66;5005680;28;20054;-67
2021/06/04 08:53:02;;;;;;;34.35;23.38;;;;;;;24.97;58.77;101756.34;5007556;28;20435;-68
2021/06/04 08:55:37;;;;;;;34.03;23.77;;;;;;;24.92;58.50;101769.06;5002051;28;20068;-67
2021/06/04 08:58:18;;;;;;;41.33;25.55;;;;;;;24.87;58.18;101761.38;5002015;28;20519;-69
2021/06/04 09:00:51;;;;;;;30.58;22.60;;;;;;;24.90;57.86;101766.50;5010789;28;20604;-67
2021/06/04 09:03:23;;;;;;;33.38;21.20;;;;;;;24.79;56.50;101769.00;5013623;28;20080;-69
2021/06/04 09:05:52;;;;;;;28.85;19.75;;;;;;;24.67;57.02;101765.28;5007833;28;20058;-67
2021/06/04 09:08:22;;;;;;;30.85;19.48;;;;;;;24.66;57.16;101759.09;5007721;28;20057;-64
2021/06/04 09:10:53;;;;;;;29.65;19.52;;;;;;;24.67;55.98;101760.81;5009703;28;20042;-67
2021/06/04 09:13:23;;;;;;;26.05;17.38;;;;;;;24.68;55.81;101756.38;5006894;28;20049;-67
2021/06/04 09:15:49;;;;;;;32.35;21.25;;;;;;;24.56;56.57;101757.97;5010120;28;20518;-67
2021/06/04 09:18:18;;;;;;;29.67;20.60;;;;;;;24.38;57.13;101762.63;5006811;28;20050;-67
2021/06/04 09:20:51;;;;;;;33.10;22.13;;;;;;;24.37;57.08;101758.25;5004437;28;20049;-67
2021/06/04 09:23:20;;;;;;;30.58;17.48;;;;;;;24.46;56.90;101757.69;5011235;28;20050;-67
2021/06/04 09:25:46;;;;;;;23.30;16.02;;;;;;;24.53;55.11;101756.34;5011263;28;20414;-69
2021/06/04 09:28:35;;;;;;;23.52;16.27;;;;;;;24.60;54.42;101748.84;5011351;28;20092;-68
2021/06/04 09:31:21;;;;;;;18.48;12.98;;;;;;;24.81;54.05;101753.78;5011275;28;20050;-67
2021/06/04 09:33:49;;;;;;;28.08;15.40;;;;;;;25.06;54.45;101757.53;5010283;28;20052;-68
2021/06/04 09:36:17;;;;;;;15.88;8.40;;;;;;;25.21;50.88;101753.03;5008951;28;20404;-64
2021/06/04 09:38:46;;;;;;;16.67;8.23;;;;;;;25.30;48.74;101757.78;5009429;28;20054;-67
2021/06/04 09:41:39;;;;;;;15.18;9.20;;;;;;;25.15;49.55;101757.81;5005101;28;20530;-66
2021/06/04 09:44:21;;;;;;;23.27;11.90;;;;;;;25.17;50.22;101757.69;5009232;28;20041;-68
2021/06/04 09:46:52;;;;;;;23.50;14.18;;;;;;;25.08;51.14;101758.28;5015147;28;20053;-68
2021/06/04 09:49:42;;;;;;;19.88;14.02;;;;;;;25.12;51.85;101758.00;5010185;28;20057;-69
2021/06/04 09:52:30;;;;;;;20.85;14.88;;;;;;;25.00;51.64;101742.84;5009433;28;20594;-68
2021/06/04 09:55:22;;;;;;;23.85;15.23;;;;;;;25.01;51.93;101744.53;5015074;28;20049;-68
2021/06/04 09:58:08;;;;;;;22.48;15.00;;;;;;;25.24;52.50;101742.19;5018423;28;20136;-67
2021/06/04 10:00:39;;;;;;;22.83;15.20;;;;;;;25.35;51.77;101730.84;5011864;28;20427;-69
2021/06/04 10:03:15;;;;;;;19.52;14.43;;;;;;;25.52;51.05;101737.72;5018244;28;20050;-66
2021/06/04 10:05:41;;;;;;;26.90;14.93;;;;;;;25.51;50.61;101722.69;5003323;28;20041;-67
2021/06/04 10:08:24;;;;;;;20.42;11.98;;;;;;;25.62;50.65;101736.13;5007450;28;20062;-68
2021/06/04 10:11:05;;;;;;;18.27;13.48;;;;;;;25.71;50.43;101729.34;5012885;28;20482;-67
2021/06/04 10:13:41;;;;;;;19.73;13.32;;;;;;;25.81;50.62;101740.22;5018650;28;20127;-67
2021/06/04 10:16:47;;;;;;;13.52;8.07;;;;;;;25.74;46.51;101729.13;5009777;28;20521;-67
2021/06/04 10:19:24;;;;;;;18.55;9.88;;;;;;;25.69;46.98;101725.91;5011220;28;20569;-66
2021/06/04 10:21:52;;;;;;;17.30;12.90;;;;;;;25.81;49.08;101732.22;5019234;28;20679;-66
2021/06/04 10:24:26;;;;;;;22.63;15.30;;;;;;;25.81;50.90;101726.88;5017850;28;20041;-67
2021/06/04 10:26:55;;;;;;;22.88;13.13;;;;;;;25.76;51.33;101735.19;5021463;28;20080;-67
2021/06/04 10:29:21;;;;;;;19.35;11.88;;;;;;;25.74;49.74;101737.97;5021559;28;20042;-68
2021/06/04 10:31:56;;;;;;;22.63;15.02;;;;;;;25.61;50.00;101735.28;5017723;28;20056;-67
2021/06/04 10:34:57;;;;;;;17.95;12.32;;;;;;;25.74;50.17;101737.97;5004660;28;20484;-69
2021/06/04 10:37:30;;;;;;;21.15;10.75;;;;;;;26.02;49.94;101729.91;5008987;28;20058;-69
2021/06/04 10:40:01;;;;;;;19.50;12.48;;;;;;;26.26;49.16;101730.03;5009626;28;20137;-68
2021/06/04 10:42:36;;;;;;;20.20;13.75;;;;;;;26.32;48.94;101729.59;5004134;28;20049;-67
2021/06/04 10:45:14;;;;;;;18.15;11.68;;;;;;;26.65;49.85;101720.16;5002653;28;20764;-67
2021/06/04 10:47:57;;;;;;;20.30;13.55;;;;;;;27.05;48.46;101715.56;5005504;28;20058;-68
2021/06/04 10:50:26;;;;;;;23.25;14.73;;;;;;;27.05;47.63;101720.91;5018121;28;20061;-68
2021/06/04 10:52:59;;;;;;;22.05;13.93;;;;;;;26.78;47.48;101719.31;5006501;28;20072;-67
2021/06/04 10:55:30;;;;;;;18.08;13.52;;;;;;;26.47;48.34;101719.66;5011499;28;20404;-66
2021/06/04 10:58:03;;;;;;;19.42;13.38;;;;;;;26.46;48.57;101722.44;5014002;28;20100;-67
2021/06/04 11:00:35;;;;;;;27.13;14.82;;;;;;;26.34;48.73;101717.00;5003786;28;23936;-66
2021/06/04 11:03:08;;;;;;;17.58;12.95;;;;;;;26.45;47.84;101718.06;5006230;28;20065;-66
2021/06/04 11:05:51;;;;;;;18.52;11.88;;;;;;;26.36;48.11;101706.22;5007234;28;20074;-67
2021/06/04 11:08:42;;;;;;;22.80;13.55;;;;;;;26.00;49.86;101707.81;5014320;28;20058;-68
2021/06/04 11:11:23;;;;;;;21.02;12.57;;;;;;;25.91;50.28;101706.63;5010782;28;20053;-67
2021/06/04 11:14:02;;;;;;;20.95;12.38;;;;;;;25.90;50.91;101707.63;5000212;28;20061;-68
2021/06/04 11:16:33;;;;;;;20.20;12.70;;;;;;;26.13;50.49;101702.50;5007948;28;20500;-66
2021/06/04 11:19:09;;;;;;;18.02;12.07;;;;;;;26.28;49.27;101697.91;5014655;28;20041;-66
2021/06/04 11:21:40;;;;;;;22.00;12.50;;;;;;;26.36;49.38;101701.75;5009071;28;22214;-67
2021/06/04 11:24:12;;;;;;;19.27;11.35;;;;;;;26.75;48.37;101690.97;5021030;28;20410;-65